Hartland Point — ZIQS6 — position and weather

sailwx.info

Track history (hours):
 
Tides and Currents Weather Stations Pressure Air Temp Water Temp Dewpoint Dewpoint Depression Visibility Wind Speed Wind Dir Waves Ship Positions

Hartland Point

Last reported at 2016-Aug-24 09:30 UTC. Time now 2016-Aug-25 09:42 UTC.
Position N 42°38' W 009°48'.

Length 193 m; draft 5.8 m.

Type: Ship. MMSI: 235505000.

Date/timePositionNaut miles runAvg speedWind from/ knotsBaromVisibWave heightAir tempDewpointWater temp
2016-Aug-24 09:30N 42°38' W 009°48'1313.6
2016-Aug-24 08:31N 42°24' W 009°48'1313.8
2016-Aug-24 07:33N 42°11' W 009°48'1814.1
2016-Aug-24 06:19N 41°54' W 009°49'4114.2
2016-Aug-24 03:27N 41°13' W 009°48'1213.8
2016-Aug-24 02:33N 41°00' W 009°47'1514.0
2016-Aug-24 01:29N 40°46' W 009°46'1313.8
2016-Aug-24 00:33N 40°33' W 009°48'1413.9
2016-Aug-23 23:33N 40°19' W 009°49'1514.0
2016-Aug-23 22:28N 40°04' W 009°50'1313.9
2016-Aug-23 21:33N 39°51' W 009°50'1414.1
2016-Aug-23 20:33N 39°37' W 009°50'1413.8
2016-Aug-23 19:33N 39°23' W 009°51'1414.1
2016-Aug-23 18:33N 39°09' W 009°51'1414.2
2016-Aug-23 17:33N 38°55' W 009°51'1414.5
2016-Aug-23 16:33N 38°40' W 009°51'1414.5
2016-Aug-23 15:33N 38°26' W 009°47'1414.0
2016-Aug-23 14:33N 38°13' W 009°43'1414.1
2016-Aug-23 13:33N 37°59' W 009°39'1413.8
2016-Aug-23 12:33N 37°45' W 009°35'1414.0
2016-Aug-23 11:33N 37°32' W 009°31'1413.9
2016-Aug-23 10:33N 37°18' W 009°28'1414.1
2016-Aug-23 09:33N 37°04' W 009°23'1413.7
2016-Aug-23 08:33N 36°51' W 009°18'1413.6
2016-Aug-23 07:33N 36°43' W 009°05'1414.0
2016-Aug-23 06:32N 36°38' W 008°48'13214.1
2016-Aug-22 21:10N 35°58' W 006°12'2814.7
2016-Aug-22 19:15N 35°58' W 005°37'1014.9
2016-Aug-22 18:34N 36°00' W 005°25'1414.0
2016-Aug-22 17:33N 36°03' W 005°08'11816.3
2016-Aug-22 10:17N 36°22' W 002°43'1616.5
2016-Aug-22 09:21N 36°24' W 002°24'62416.1
2016-Aug-20 18:30N 37°35' E 010°32'1516.2
2016-Aug-20 17:33N 37°32' E 010°51'3316.3
2016-Aug-20 15:33N 37°19' E 011°29'1616.4
2016-Aug-20 14:33N 37°10' E 011°46'1615.8
2016-Aug-20 13:33N 37°02' E 012°03'1615.6
2016-Aug-20 12:33N 36°58' E 012°22'1615.9
2016-Aug-20 11:33N 36°53' E 012°41'1616.0
2016-Aug-20 10:33N 36°48' E 013°00'1616.0
2016-Aug-20 09:33N 36°44' E 013°19'1615.7
2016-Aug-20 08:33N 36°39' E 013°38'1515.5
2016-Aug-20 07:34N 36°35' E 013°56'1616.0
2016-Aug-20 06:33N 36°30' E 014°15'1616.0
2016-Aug-20 05:33N 36°26' E 014°35'1616.4
2016-Aug-20 04:33N 36°22' E 014°54'1616.3
2016-Aug-20 03:33N 36°18' E 015°14'1615.9
2016-Aug-20 02:33N 36°14' E 015°33'2215.9
2016-Aug-20 01:11N 36°10' E 015°60'1415.8
2016-Aug-20 00:17N 36°07' E 016°17'1215.9
2016-Aug-19 23:33N 36°04' E 016°31'30616.0
2016-Aug-19 04:28N 34°55' E 022°38'1516.2
2016-Aug-19 03:33N 34°52' E 022°55'1716.2
2016-Aug-19 02:29N 34°48' E 023°16'14316.0
2016-Aug-18 17:33N 34°37' E 026°09'16516.1
2016-Aug-18 07:20N 34°33' E 029°29'9215.9
2016-Aug-18 01:34N 34°32' E 031°21'6315.8
2016-Aug-17 21:33N 34°31' E 032°38'1616.1
2016-Aug-17 20:33N 34°31' E 032°57'9 9.4
2016-Aug-17 19:34N 34°39' E 033°03'1 1.1
2016-Aug-17 18:33N 34°39' E 033°01'0 0.0
2016-Aug-17 17:33N 34°39' E 033°01'0 0.0
2016-Aug-17 16:32N 34°39' E 033°01'0 0.0
2016-Aug-17 15:29N 34°39' E 033°01'0 0.0
2016-Aug-17 14:32N 34°39' E 033°01'0 0.0
2016-Aug-17 13:32N 34°39' E 033°01'0 0.4
2016-Aug-17 12:33N 34°39' E 033°02'6 5.7
2016-Aug-17 11:33N 34°35' E 033°07'1313.3
2016-Aug-17 10:34N 34°22' E 033°08'  
Track history (hours):
 
Tides and Currents Weather Stations Pressure Air Temp Water Temp Dewpoint Dewpoint Depression Visibility Wind Speed Wind Dir Waves Ship Positions

Hartland Point

Last reported at 2016-Aug-24 09:30 UTC. Time now 2016-Aug-25 09:42 UTC.
Position N 42°38' W 009°48'.

Length 193 m; draft 5.8 m.

Type: Ship. MMSI: 235505000.

Date/timePositionNaut miles runAvg speedWind from/ knotsBaromVisibWave heightAir tempDewpointWater temp
2016-Aug-24 09:30N 42°38' W 009°48'1313.6
2016-Aug-24 08:31N 42°24' W 009°48'1313.8
2016-Aug-24 07:33N 42°11' W 009°48'1814.1
2016-Aug-24 06:19N 41°54' W 009°49'4114.2
2016-Aug-24 03:27N 41°13' W 009°48'1213.8
2016-Aug-24 02:33N 41°00' W 009°47'1514.0
2016-Aug-24 01:29N 40°46' W 009°46'1313.8
2016-Aug-24 00:33N 40°33' W 009°48'1413.9
2016-Aug-23 23:33N 40°19' W 009°49'1514.0
2016-Aug-23 22:28N 40°04' W 009°50'1313.9
2016-Aug-23 21:33N 39°51' W 009°50'1414.1
2016-Aug-23 20:33N 39°37' W 009°50'1413.8
2016-Aug-23 19:33N 39°23' W 009°51'1414.1
2016-Aug-23 18:33N 39°09' W 009°51'1414.2
2016-Aug-23 17:33N 38°55' W 009°51'1414.5
2016-Aug-23 16:33N 38°40' W 009°51'1414.5
2016-Aug-23 15:33N 38°26' W 009°47'1414.0
2016-Aug-23 14:33N 38°13' W 009°43'1414.1
2016-Aug-23 13:33N 37°59' W 009°39'1413.8
2016-Aug-23 12:33N 37°45' W 009°35'1414.0
2016-Aug-23 11:33N 37°32' W 009°31'1413.9
2016-Aug-23 10:33N 37°18' W 009°28'1414.1
2016-Aug-23 09:33N 37°04' W 009°23'1413.7
2016-Aug-23 08:33N 36°51' W 009°18'1413.6
2016-Aug-23 07:33N 36°43' W 009°05'1414.0
2016-Aug-23 06:32N 36°38' W 008°48'13214.1
2016-Aug-22 21:10N 35°58' W 006°12'2814.7
2016-Aug-22 19:15N 35°58' W 005°37'1014.9
2016-Aug-22 18:34N 36°00' W 005°25'1414.0
2016-Aug-22 17:33N 36°03' W 005°08'11816.3
2016-Aug-22 10:17N 36°22' W 002°43'1616.5
2016-Aug-22 09:21N 36°24' W 002°24'62416.1
2016-Aug-20 18:30N 37°35' E 010°32'1516.2
2016-Aug-20 17:33N 37°32' E 010°51'3316.3
2016-Aug-20 15:33N 37°19' E 011°29'1616.4
2016-Aug-20 14:33N 37°10' E 011°46'1615.8
2016-Aug-20 13:33N 37°02' E 012°03'1615.6
2016-Aug-20 12:33N 36°58' E 012°22'1615.9
2016-Aug-20 11:33N 36°53' E 012°41'1616.0
2016-Aug-20 10:33N 36°48' E 013°00'1616.0
2016-Aug-20 09:33N 36°44' E 013°19'1615.7
2016-Aug-20 08:33N 36°39' E 013°38'1515.5
2016-Aug-20 07:34N 36°35' E 013°56'1616.0
2016-Aug-20 06:33N 36°30' E 014°15'1616.0
2016-Aug-20 05:33N 36°26' E 014°35'1616.4
2016-Aug-20 04:33N 36°22' E 014°54'1616.3
2016-Aug-20 03:33N 36°18' E 015°14'1615.9
2016-Aug-20 02:33N 36°14' E 015°33'2215.9
2016-Aug-20 01:11N 36°10' E 015°60'1415.8
2016-Aug-20 00:17N 36°07' E 016°17'1215.9
2016-Aug-19 23:33N 36°04' E 016°31'30616.0
2016-Aug-19 04:28N 34°55' E 022°38'1516.2
2016-Aug-19 03:33N 34°52' E 022°55'1716.2
2016-Aug-19 02:29N 34°48' E 023°16'14316.0
2016-Aug-18 17:33N 34°37' E 026°09'16516.1
2016-Aug-18 07:20N 34°33' E 029°29'9215.9
2016-Aug-18 01:34N 34°32' E 031°21'6315.8
2016-Aug-17 21:33N 34°31' E 032°38'1616.1
2016-Aug-17 20:33N 34°31' E 032°57'9 9.4
2016-Aug-17 19:34N 34°39' E 033°03'1 1.1
2016-Aug-17 18:33N 34°39' E 033°01'0 0.0
2016-Aug-17 17:33N 34°39' E 033°01'0 0.0
2016-Aug-17 16:32N 34°39' E 033°01'0 0.0
2016-Aug-17 15:29N 34°39' E 033°01'0 0.0
2016-Aug-17 14:32N 34°39' E 033°01'0 0.0
2016-Aug-17 13:32N 34°39' E 033°01'0 0.4
2016-Aug-17 12:33N 34°39' E 033°02'6 5.7
2016-Aug-17 11:33N 34°35' E 033°07'1313.3
2016-Aug-17 10:34N 34°22' E 033°08'  

Dump ship's entire track history